Terminal Aerodrome Forecast
Issued by NWS

Home | Current Version | Previous Version | Text Only | Print | Product List | Glossary On
Versions: 1 2 3 4 5 6 7 8 9 10 11 12 13 14 15 16 17
000
FTUS45 KABQ 051737
TAFSAF
TAF
KSAF 051737Z 0518/0618 22006KT P6SM FEW070 SCT150
     FM052200 29010KT P6SM VCTS SCT060CB BKN150
      TEMPO 0600/0603 VRB15G25KT 6SM TSRA BKN060CB
     FM060300 33006KT P6SM VCSH BKN060 BKN120
     FM060700 36005KT P6SM BKN100=

USA.gov is the U.S. government's official web portal to all federal, state and local government web resources and services.